Terminal Aerodrome Forecast
Issued by NWS Omaha/Valley, NE

Home | Current Version | Previous Version | Text Only | Print | Product List | Glossary On
Versions: 1 2 3 4 5 6 7 8 9 10 11 12 13 14 15 16 17 18 19 20 21 22 23 24 25 26 27
000
FTUS43 KOAX 281738
TAFLNK
TAF
KLNK 281738Z 2818/2918 27013KT P6SM SCT050
      TEMPO 2820/2823 P6SM -SHRA BKN050
     FM282300 27012KT P6SM BKN100
     FM290500 26003KT P6SM SKC=

USA.gov is the U.S. government's official web portal to all federal, state and local government web resources and services.